sensor_id;sensor_type;location;lat;lon;timestamp;P1;durP1;ratioP1;P2;durP2;ratioP2
33327;SDS011;19692;52.998;9.116;2024-03-17T00:01:35;19.30;;;4.37;;
33327;SDS011;19692;52.998;9.116;2024-03-17T00:04:01;14.00;;;4.53;;
33327;SDS011;19692;52.998;9.116;2024-03-17T00:06:27;14.43;;;4.03;;
33327;SDS011;19692;52.998;9.116;2024-03-17T00:08:52;19.03;;;4.10;;
33327;SDS011;19692;52.998;9.116;2024-03-17T00:11:19;15.97;;;4.30;;
33327;SDS011;19692;52.998;9.116;2024-03-17T00:13:45;16.33;;;4.57;;
33327;SDS011;19692;52.998;9.116;2024-03-17T00:16:11;15.37;;;4.30;;
33327;SDS011;19692;52.998;9.116;2024-03-17T00:18:38;17.93;;;4.13;;
33327;SDS011;19692;52.998;9.116;2024-03-17T00:21:04;13.37;;;4.33;;
33327;SDS011;19692;52.998;9.116;2024-03-17T00:23:30;20.73;;;4.70;;
33327;SDS011;19692;52.998;9.116;2024-03-17T00:25:55;13.90;;;4.60;;
33327;SDS011;19692;52.998;9.116;2024-03-17T00:28:21;14.00;;;4.00;;
33327;SDS011;19692;52.998;9.116;2024-03-17T00:30:46;18.63;;;4.10;;
33327;SDS011;19692;52.998;9.116;2024-03-17T00:33:12;11.90;;;4.17;;
33327;SDS011;19692;52.998;9.116;2024-03-17T00:35:39;17.53;;;3.83;;
33327;SDS011;19692;52.998;9.116;2024-03-17T00:38:04;14.50;;;3.90;;
33327;SDS011;19692;52.998;9.116;2024-03-17T00:40:35;12.50;;;4.10;;
33327;SDS011;19692;52.998;9.116;2024-03-17T00:43:05;14.17;;;4.30;;
33327;SDS011;19692;52.998;9.116;2024-03-17T00:45:31;17.90;;;4.57;;
33327;SDS011;19692;52.998;9.116;2024-03-17T00:47:57;15.20;;;4.73;;
33327;SDS011;19692;52.998;9.116;2024-03-17T00:50:22;13.70;;;4.33;;
33327;SDS011;19692;52.998;9.116;2024-03-17T00:52:48;11.93;;;3.40;;
33327;SDS011;19692;52.998;9.116;2024-03-17T00:55:13;10.80;;;4.20;;
33327;SDS011;19692;52.998;9.116;2024-03-17T00:57:40;15.07;;;4.30;;
33327;SDS011;19692;52.998;9.116;2024-03-17T01:00:06;13.77;;;4.00;;
33327;SDS011;19692;52.998;9.116;2024-03-17T01:02:35;12.87;;;4.20;;
33327;SDS011;19692;52.998;9.116;2024-03-17T01:05:00;14.30;;;3.77;;
33327;SDS011;19692;52.998;9.116;2024-03-17T01:07:26;14.33;;;3.93;;
33327;SDS011;19692;52.998;9.116;2024-03-17T01:09:51;17.20;;;4.10;;
33327;SDS011;19692;52.998;9.116;2024-03-17T01:12:17;13.73;;;4.33;;
33327;SDS011;19692;52.998;9.116;2024-03-17T01:14:43;17.07;;;4.60;;
33327;SDS011;19692;52.998;9.116;2024-03-17T01:17:08;16.33;;;4.77;;
33327;SDS011;19692;52.998;9.116;2024-03-17T01:19:34;15.03;;;4.40;;
33327;SDS011;19692;52.998;9.116;2024-03-17T01:22:00;20.47;;;4.57;;
33327;SDS011;19692;52.998;9.116;2024-03-17T01:24:25;15.43;;;4.00;;
33327;SDS011;19692;52.998;9.116;2024-03-17T01:26:56;14.23;;;3.90;;
33327;SDS011;19692;52.998;9.116;2024-03-17T01:29:22;15.13;;;4.40;;
33327;SDS011;19692;52.998;9.116;2024-03-17T01:31:48;15.73;;;3.70;;
33327;SDS011;19692;52.998;9.116;2024-03-17T01:34:13;14.10;;;3.77;;
33327;SDS011;19692;52.998;9.116;2024-03-17T01:36:39;10.50;;;3.73;;
33327;SDS011;19692;52.998;9.116;2024-03-17T01:39:04;17.00;;;3.87;;
33327;SDS011;19692;52.998;9.116;2024-03-17T01:41:30;16.63;;;4.20;;
33327;SDS011;19692;52.998;9.116;2024-03-17T01:43:56;13.93;;;4.43;;
33327;SDS011;19692;52.998;9.116;2024-03-17T01:46:23;15.80;;;4.03;;
33327;SDS011;19692;52.998;9.116;2024-03-17T01:48:49;14.67;;;3.97;;
33327;SDS011;19692;52.998;9.116;2024-03-17T01:51:16;14.53;;;4.50;;
33327;SDS011;19692;52.998;9.116;2024-03-17T01:53:43;16.93;;;3.60;;
33327;SDS011;19692;52.998;9.116;2024-03-17T01:56:12;13.27;;;3.80;;
33327;SDS011;19692;52.998;9.116;2024-03-17T01:58:39;16.10;;;3.67;;
33327;SDS011;19692;52.998;9.116;2024-03-17T02:01:09;13.47;;;4.00;;
33327;SDS011;19692;52.998;9.116;2024-03-17T02:03:35;10.67;;;3.20;;
33327;SDS011;19692;52.998;9.116;2024-03-17T02:06:02;18.20;;;4.67;;
33327;SDS011;19692;52.998;9.116;2024-03-17T02:08:28;9.17;;;3.40;;
33327;SDS011;19692;52.998;9.116;2024-03-17T02:10:53;10.73;;;3.33;;
33327;SDS011;19692;52.998;9.116;2024-03-17T02:13:20;14.63;;;4.30;;
33327;SDS011;19692;52.998;9.116;2024-03-17T02:15:46;12.30;;;3.77;;
33327;SDS011;19692;52.998;9.116;2024-03-17T02:18:12;11.07;;;3.37;;
33327;SDS011;19692;52.998;9.116;2024-03-17T02:20:38;10.47;;;3.20;;
33327;SDS011;19692;52.998;9.116;2024-03-17T02:23:20;13.10;;;4.30;;
33327;SDS011;19692;52.998;9.116;2024-03-17T02:25:45;12.87;;;3.97;;
33327;SDS011;19692;52.998;9.116;2024-03-17T02:28:13;10.33;;;3.90;;
33327;SDS011;19692;52.998;9.116;2024-03-17T02:30:38;8.67;;;3.57;;
33327;SDS011;19692;52.998;9.116;2024-03-17T02:33:04;11.37;;;3.80;;
33327;SDS011;19692;52.998;9.116;2024-03-17T02:35:29;13.90;;;3.20;;
33327;SDS011;19692;52.998;9.116;2024-03-17T02:37:55;10.00;;;3.53;;
33327;SDS011;19692;52.998;9.116;2024-03-17T02:40:21;11.17;;;3.20;;
33327;SDS011;19692;52.998;9.116;2024-03-17T02:42:47;7.63;;;2.90;;
33327;SDS011;19692;52.998;9.116;2024-03-17T02:45:13;11.57;;;3.43;;
33327;SDS011;19692;52.998;9.116;2024-03-17T02:47:39;9.07;;;3.17;;
33327;SDS011;19692;52.998;9.116;2024-03-17T02:50:05;11.90;;;3.20;;
33327;SDS011;19692;52.998;9.116;2024-03-17T02:52:31;18.17;;;4.10;;
33327;SDS011;19692;52.998;9.116;2024-03-17T02:54:57;12.53;;;3.87;;
33327;SDS011;19692;52.998;9.116;2024-03-17T02:57:22;10.47;;;3.20;;
33327;SDS011;19692;52.998;9.116;2024-03-17T02:59:50;11.87;;;3.70;;
33327;SDS011;19692;52.998;9.116;2024-03-17T03:02:16;12.63;;;3.17;;
33327;SDS011;19692;52.998;9.116;2024-03-17T03:04:42;11.53;;;3.30;;
33327;SDS011;19692;52.998;9.116;2024-03-17T03:07:08;10.30;;;2.87;;
33327;SDS011;19692;52.998;9.116;2024-03-17T03:09:33;7.13;;;3.07;;
33327;SDS011;19692;52.998;9.116;2024-03-17T03:11:59;16.30;;;3.70;;
33327;SDS011;19692;52.998;9.116;2024-03-17T03:14:27;15.50;;;4.57;;
33327;SDS011;19692;52.998;9.116;2024-03-17T03:16:53;10.57;;;3.20;;
33327;SDS011;19692;52.998;9.116;2024-03-17T03:19:18;11.60;;;3.70;;
33327;SDS011;19692;52.998;9.116;2024-03-17T03:21:44;8.10;;;3.00;;
33327;SDS011;19692;52.998;9.116;2024-03-17T03:24:10;8.83;;;3.40;;
33327;SDS011;19692;52.998;9.116;2024-03-17T03:26:37;12.27;;;3.40;;
33327;SDS011;19692;52.998;9.116;2024-03-17T03:29:03;15.90;;;4.23;;
33327;SDS011;19692;52.998;9.116;2024-03-17T03:31:30;11.50;;;3.63;;
33327;SDS011;19692;52.998;9.116;2024-03-17T03:33:58;10.93;;;4.13;;
33327;SDS011;19692;52.998;9.116;2024-03-17T03:36:26;13.00;;;3.97;;
33327;SDS011;19692;52.998;9.116;2024-03-17T03:38:52;8.33;;;3.70;;
33327;SDS011;19692;52.998;9.116;2024-03-17T03:41:18;14.33;;;4.13;;
33327;SDS011;19692;52.998;9.116;2024-03-17T03:43:44;10.93;;;3.40;;
33327;SDS011;19692;52.998;9.116;2024-03-17T03:46:11;10.10;;;3.80;;
33327;SDS011;19692;52.998;9.116;2024-03-17T03:48:37;12.00;;;3.40;;
33327;SDS011;19692;52.998;9.116;2024-03-17T03:51:03;13.10;;;3.63;;
33327;SDS011;19692;52.998;9.116;2024-03-17T03:53:30;15.20;;;3.93;;
33327;SDS011;19692;52.998;9.116;2024-03-17T03:55:56;9.83;;;3.77;;
33327;SDS011;19692;52.998;9.116;2024-03-17T03:58:22;14.63;;;4.47;;
33327;SDS011;19692;52.998;9.116;2024-03-17T04:00:47;9.67;;;3.90;;
33327;SDS011;19692;52.998;9.116;2024-03-17T04:03:13;15.20;;;4.57;;
33327;SDS011;19692;52.998;9.116;2024-03-17T04:05:38;14.77;;;4.80;;
33327;SDS011;19692;52.998;9.116;2024-03-17T04:08:04;20.97;;;4.73;;
33327;SDS011;19692;52.998;9.116;2024-03-17T04:10:30;12.70;;;4.60;;
33327;SDS011;19692;52.998;9.116;2024-03-17T04:12:55;16.70;;;4.57;;
33327;SDS011;19692;52.998;9.116;2024-03-17T04:15:22;14.90;;;4.33;;
33327;SDS011;19692;52.998;9.116;2024-03-17T04:17:49;17.07;;;4.90;;
33327;SDS011;19692;52.998;9.116;2024-03-17T04:20:14;14.90;;;4.87;;
33327;SDS011;19692;52.998;9.116;2024-03-17T04:22:41;13.27;;;4.43;;
33327;SDS011;19692;52.998;9.116;2024-03-17T04:25:08;16.43;;;4.70;;
33327;SDS011;19692;52.998;9.116;2024-03-17T04:27:34;12.73;;;4.30;;
33327;SDS011;19692;52.998;9.116;2024-03-17T04:30:00;14.63;;;4.33;;
33327;SDS011;19692;52.998;9.116;2024-03-17T04:32:26;11.37;;;4.27;;
33327;SDS011;19692;52.998;9.116;2024-03-17T04:34:55;13.03;;;4.57;;
33327;SDS011;19692;52.998;9.116;2024-03-17T04:37:21;14.90;;;4.57;;
33327;SDS011;19692;52.998;9.116;2024-03-17T04:39:47;20.53;;;4.83;;
33327;SDS011;19692;52.998;9.116;2024-03-17T04:42:14;9.77;;;4.17;;
33327;SDS011;19692;52.998;9.116;2024-03-17T04:44:41;16.20;;;4.47;;
33327;SDS011;19692;52.998;9.116;2024-03-17T04:47:07;17.33;;;4.80;;
33327;SDS011;19692;52.998;9.116;2024-03-17T04:49:37;12.07;;;4.20;;
33327;SDS011;19692;52.998;9.116;2024-03-17T04:52:03;15.20;;;4.67;;
33327;SDS011;19692;52.998;9.116;2024-03-17T04:54:33;16.27;;;5.10;;
33327;SDS011;19692;52.998;9.116;2024-03-17T04:56:59;14.20;;;4.17;;
33327;SDS011;19692;52.998;9.116;2024-03-17T04:59:26;19.07;;;4.97;;
33327;SDS011;19692;52.998;9.116;2024-03-17T05:01:52;13.17;;;4.10;;
33327;SDS011;19692;52.998;9.116;2024-03-17T05:04:18;13.03;;;4.50;;
33327;SDS011;19692;52.998;9.116;2024-03-17T05:06:44;13.93;;;5.00;;
33327;SDS011;19692;52.998;9.116;2024-03-17T05:09:11;14.23;;;4.70;;
33327;SDS011;19692;52.998;9.116;2024-03-17T05:11:46;11.93;;;4.07;;
33327;SDS011;19692;52.998;9.116;2024-03-17T05:14:12;15.90;;;4.73;;
33327;SDS011;19692;52.998;9.116;2024-03-17T05:16:38;18.60;;;5.13;;
33327;SDS011;19692;52.998;9.116;2024-03-17T05:19:04;11.30;;;5.03;;
33327;SDS011;19692;52.998;9.116;2024-03-17T05:21:30;16.47;;;4.50;;
33327;SDS011;19692;52.998;9.116;2024-03-17T05:23:56;18.53;;;5.20;;
33327;SDS011;19692;52.998;9.116;2024-03-17T05:26:24;15.33;;;5.30;;
33327;SDS011;19692;52.998;9.116;2024-03-17T05:28:50;14.53;;;5.63;;
33327;SDS011;19692;52.998;9.116;2024-03-17T05:31:16;18.87;;;5.57;;
33327;SDS011;19692;52.998;9.116;2024-03-17T05:33:43;15.30;;;6.17;;
33327;SDS011;19692;52.998;9.116;2024-03-17T05:36:09;17.93;;;5.10;;
33327;SDS011;19692;52.998;9.116;2024-03-17T05:38:34;15.70;;;4.83;;
33327;SDS011;19692;52.998;9.116;2024-03-17T05:41:00;17.30;;;5.57;;
33327;SDS011;19692;52.998;9.116;2024-03-17T05:43:26;21.70;;;5.77;;
33327;SDS011;19692;52.998;9.116;2024-03-17T05:45:58;21.30;;;6.97;;
33327;SDS011;19692;52.998;9.116;2024-03-17T05:48:25;19.57;;;6.30;;
33327;SDS011;19692;52.998;9.116;2024-03-17T05:50:51;18.13;;;6.80;;
33327;SDS011;19692;52.998;9.116;2024-03-17T05:53:16;13.90;;;5.70;;
33327;SDS011;19692;52.998;9.116;2024-03-17T05:55:45;16.93;;;5.90;;
33327;SDS011;19692;52.998;9.116;2024-03-17T05:58:11;17.90;;;6.10;;
33327;SDS011;19692;52.998;9.116;2024-03-17T06:00:37;23.93;;;6.50;;
33327;SDS011;19692;52.998;9.116;2024-03-17T06:03:04;15.03;;;6.23;;
33327;SDS011;19692;52.998;9.116;2024-03-17T06:05:31;18.87;;;6.30;;
33327;SDS011;19692;52.998;9.116;2024-03-17T06:08:01;18.80;;;6.87;;
33327;SDS011;19692;52.998;9.116;2024-03-17T06:10:28;20.77;;;6.43;;
33327;SDS011;19692;52.998;9.116;2024-03-17T06:12:55;11.53;;;5.70;;
33327;SDS011;19692;52.998;9.116;2024-03-17T06:15:22;14.90;;;5.97;;
33327;SDS011;19692;52.998;9.116;2024-03-17T06:17:48;15.97;;;5.60;;
33327;SDS011;19692;52.998;9.116;2024-03-17T06:20:16;15.83;;;5.90;;
33327;SDS011;19692;52.998;9.116;2024-03-17T06:22:42;22.53;;;6.33;;
33327;SDS011;19692;52.998;9.116;2024-03-17T06:25:08;23.43;;;6.37;;
33327;SDS011;19692;52.998;9.116;2024-03-17T06:27:34;22.50;;;6.00;;
33327;SDS011;19692;52.998;9.116;2024-03-17T06:30:00;17.10;;;7.20;;
33327;SDS011;19692;52.998;9.116;2024-03-17T06:32:29;16.80;;;6.20;;
33327;SDS011;19692;52.998;9.116;2024-03-17T06:34:56;18.27;;;6.23;;
33327;SDS011;19692;52.998;9.116;2024-03-17T06:37:22;20.50;;;6.63;;
33327;SDS011;19692;52.998;9.116;2024-03-17T06:39:48;20.73;;;6.80;;
33327;SDS011;19692;52.998;9.116;2024-03-17T06:42:13;18.80;;;7.10;;
33327;SDS011;19692;52.998;9.116;2024-03-17T06:44:39;16.90;;;6.50;;
33327;SDS011;19692;52.998;9.116;2024-03-17T06:47:05;18.60;;;6.57;;
33327;SDS011;19692;52.998;9.116;2024-03-17T06:49:30;20.97;;;7.03;;
33327;SDS011;19692;52.998;9.116;2024-03-17T06:51:56;18.10;;;5.50;;
33327;SDS011;19692;52.998;9.116;2024-03-17T06:54:21;14.80;;;6.93;;
33327;SDS011;19692;52.998;9.116;2024-03-17T06:56:47;14.67;;;6.03;;
33327;SDS011;19692;52.998;9.116;2024-03-17T06:59:12;15.17;;;5.90;;
33327;SDS011;19692;52.998;9.116;2024-03-17T07:01:38;19.33;;;6.60;;
33327;SDS011;19692;52.998;9.116;2024-03-17T07:04:03;21.73;;;7.00;;
33327;SDS011;19692;52.998;9.116;2024-03-17T07:06:30;24.37;;;7.87;;
33327;SDS011;19692;52.998;9.116;2024-03-17T07:08:56;15.70;;;6.97;;
33327;SDS011;19692;52.998;9.116;2024-03-17T07:11:21;21.40;;;7.27;;
33327;SDS011;19692;52.998;9.116;2024-03-17T07:13:49;18.37;;;6.60;;
33327;SDS011;19692;52.998;9.116;2024-03-17T07:16:17;17.90;;;5.77;;
33327;SDS011;19692;52.998;9.116;2024-03-17T07:18:43;20.80;;;6.77;;
33327;SDS011;19692;52.998;9.116;2024-03-17T07:21:09;22.90;;;6.80;;
33327;SDS011;19692;52.998;9.116;2024-03-17T07:23:36;22.60;;;6.90;;
33327;SDS011;19692;52.998;9.116;2024-03-17T07:26:02;13.27;;;6.10;;
33327;SDS011;19692;52.998;9.116;2024-03-17T07:28:29;20.57;;;7.33;;
33327;SDS011;19692;52.998;9.116;2024-03-17T07:30:57;14.83;;;6.80;;
33327;SDS011;19692;52.998;9.116;2024-03-17T07:33:23;16.30;;;6.90;;
33327;SDS011;19692;52.998;9.116;2024-03-17T07:35:53;18.37;;;7.57;;
33327;SDS011;19692;52.998;9.116;2024-03-17T07:38:25;17.73;;;6.43;;
33327;SDS011;19692;52.998;9.116;2024-03-17T07:43:36;18.37;;;6.47;;
33327;SDS011;19692;52.998;9.116;2024-03-17T07:46:10;21.47;;;6.27;;
33327;SDS011;19692;52.998;9.116;2024-03-17T07:48:37;16.57;;;6.00;;
33327;SDS011;19692;52.998;9.116;2024-03-17T07:51:05;20.80;;;6.77;;
33327;SDS011;19692;52.998;9.116;2024-03-17T07:53:36;14.67;;;5.90;;
33327;SDS011;19692;52.998;9.116;2024-03-17T07:56:07;18.67;;;6.10;;
33327;SDS011;19692;52.998;9.116;2024-03-17T07:58:37;14.57;;;6.33;;
33327;SDS011;19692;52.998;9.116;2024-03-17T08:01:05;22.50;;;5.80;;
33327;SDS011;19692;52.998;9.116;2024-03-17T08:03:32;21.47;;;6.90;;
33327;SDS011;19692;52.998;9.116;2024-03-17T08:05:59;20.30;;;5.90;;
33327;SDS011;19692;52.998;9.116;2024-03-17T08:08:29;16.43;;;5.87;;
33327;SDS011;19692;52.998;9.116;2024-03-17T08:10:54;17.23;;;6.17;;
33327;SDS011;19692;52.998;9.116;2024-03-17T08:13:20;20.57;;;5.63;;
33327;SDS011;19692;52.998;9.116;2024-03-17T08:15:49;17.57;;;5.07;;
33327;SDS011;19692;52.998;9.116;2024-03-17T08:18:21;16.13;;;6.10;;
33327;SDS011;19692;52.998;9.116;2024-03-17T08:20:46;15.73;;;5.27;;
33327;SDS011;19692;52.998;9.116;2024-03-17T08:23:12;15.63;;;5.47;;
33327;SDS011;19692;52.998;9.116;2024-03-17T08:25:38;15.63;;;5.30;;
33327;SDS011;19692;52.998;9.116;2024-03-17T08:28:04;16.10;;;5.60;;
33327;SDS011;19692;52.998;9.116;2024-03-17T08:30:32;17.10;;;5.67;;
33327;SDS011;19692;52.998;9.116;2024-03-17T08:32:58;13.17;;;4.80;;
33327;SDS011;19692;52.998;9.116;2024-03-17T08:35:23;19.57;;;5.17;;
33327;SDS011;19692;52.998;9.116;2024-03-17T08:37:49;15.87;;;4.47;;
33327;SDS011;19692;52.998;9.116;2024-03-17T08:40:16;15.73;;;4.50;;
33327;SDS011;19692;52.998;9.116;2024-03-17T08:42:42;15.47;;;4.67;;
33327;SDS011;19692;52.998;9.116;2024-03-17T08:45:09;18.10;;;4.90;;
33327;SDS011;19692;52.998;9.116;2024-03-17T08:47:36;18.57;;;4.47;;
33327;SDS011;19692;52.998;9.116;2024-03-17T08:50:01;17.43;;;4.83;;
33327;SDS011;19692;52.998;9.116;2024-03-17T08:52:29;13.50;;;4.27;;
33327;SDS011;19692;52.998;9.116;2024-03-17T08:54:57;15.80;;;4.93;;
33327;SDS011;19692;52.998;9.116;2024-03-17T08:57:23;11.80;;;3.73;;
33327;SDS011;19692;52.998;9.116;2024-03-17T08:59:48;15.40;;;4.13;;
33327;SDS011;19692;52.998;9.116;2024-03-17T09:02:14;15.73;;;3.93;;
33327;SDS011;19692;52.998;9.116;2024-03-17T09:04:43;19.83;;;3.83;;
33327;SDS011;19692;52.998;9.116;2024-03-17T09:07:08;15.93;;;3.90;;
33327;SDS011;19692;52.998;9.116;2024-03-17T09:09:34;14.93;;;3.97;;
33327;SDS011;19692;52.998;9.116;2024-03-17T09:12:00;18.60;;;3.90;;
33327;SDS011;19692;52.998;9.116;2024-03-17T09:14:25;11.27;;;3.30;;
33327;SDS011;19692;52.998;9.116;2024-03-17T09:16:51;13.30;;;3.47;;
33327;SDS011;19692;52.998;9.116;2024-03-17T09:19:16;9.10;;;3.40;;
33327;SDS011;19692;52.998;9.116;2024-03-17T09:21:42;17.50;;;3.50;;
33327;SDS011;19692;52.998;9.116;2024-03-17T09:24:08;12.30;;;3.57;;
33327;SDS011;19692;52.998;9.116;2024-03-17T09:26:34;16.23;;;3.57;;
33327;SDS011;19692;52.998;9.116;2024-03-17T09:29:00;17.23;;;3.67;;
33327;SDS011;19692;52.998;9.116;2024-03-17T09:31:26;13.23;;;3.50;;
33327;SDS011;19692;52.998;9.116;2024-03-17T09:33:52;11.70;;;3.27;;
33327;SDS011;19692;52.998;9.116;2024-03-17T09:36:17;8.43;;;3.43;;
33327;SDS011;19692;52.998;9.116;2024-03-17T09:38:43;9.47;;;3.00;;
33327;SDS011;19692;52.998;9.116;2024-03-17T09:41:28;16.10;;;2.63;;
33327;SDS011;19692;52.998;9.116;2024-03-17T09:43:54;10.50;;;3.00;;
33327;SDS011;19692;52.998;9.116;2024-03-17T09:46:20;10.70;;;3.03;;
33327;SDS011;19692;52.998;9.116;2024-03-17T09:48:48;10.60;;;3.47;;
33327;SDS011;19692;52.998;9.116;2024-03-17T09:51:18;6.90;;;2.80;;
33327;SDS011;19692;52.998;9.116;2024-03-17T09:53:45;10.97;;;3.33;;
33327;SDS011;19692;52.998;9.116;2024-03-17T09:56:15;9.83;;;3.13;;
33327;SDS011;19692;52.998;9.116;2024-03-17T09:58:49;9.00;;;2.90;;
33327;SDS011;19692;52.998;9.116;2024-03-17T10:01:15;11.30;;;3.13;;
33327;SDS011;19692;52.998;9.116;2024-03-17T10:06:15;9.00;;;3.07;;
33327;SDS011;19692;52.998;9.116;2024-03-17T10:11:08;9.47;;;2.80;;
33327;SDS011;19692;52.998;9.116;2024-03-17T10:13:33;7.20;;;2.37;;
33327;SDS011;19692;52.998;9.116;2024-03-17T10:15:59;6.70;;;2.77;;
33327;SDS011;19692;52.998;9.116;2024-03-17T10:18:25;6.10;;;2.37;;
33327;SDS011;19692;52.998;9.116;2024-03-17T10:20:50;9.00;;;2.83;;
33327;SDS011;19692;52.998;9.116;2024-03-17T10:23:20;4.50;;;2.37;;
33327;SDS011;19692;52.998;9.116;2024-03-17T10:25:45;6.33;;;3.10;;
33327;SDS011;19692;52.998;9.116;2024-03-17T10:28:11;8.20;;;2.57;;
33327;SDS011;19692;52.998;9.116;2024-03-17T10:30:38;6.17;;;2.67;;
33327;SDS011;19692;52.998;9.116;2024-03-17T10:33:05;9.20;;;2.43;;
33327;SDS011;19692;52.998;9.116;2024-03-17T10:35:34;6.20;;;2.17;;
33327;SDS011;19692;52.998;9.116;2024-03-17T10:38:04;10.10;;;2.80;;
33327;SDS011;19692;52.998;9.116;2024-03-17T10:40:31;8.27;;;2.67;;
33327;SDS011;19692;52.998;9.116;2024-03-17T10:43:04;7.63;;;2.40;;
33327;SDS011;19692;52.998;9.116;2024-03-17T10:45:30;6.43;;;2.03;;
33327;SDS011;19692;52.998;9.116;2024-03-17T10:48:07;6.80;;;2.13;;
33327;SDS011;19692;52.998;9.116;2024-03-17T10:50:36;8.83;;;2.90;;
33327;SDS011;19692;52.998;9.116;2024-03-17T10:53:05;6.03;;;2.20;;
33327;SDS011;19692;52.998;9.116;2024-03-17T10:55:43;8.00;;;2.40;;
33327;SDS011;19692;52.998;9.116;2024-03-17T10:58:53;6.30;;;2.37;;
33327;SDS011;19692;52.998;9.116;2024-03-17T11:01:03;6.57;;;2.50;;
33327;SDS011;19692;52.998;9.116;2024-03-17T11:03:32;8.10;;;2.63;;
33327;SDS011;19692;52.998;9.116;2024-03-17T11:05:59;10.33;;;3.70;;
33327;SDS011;19692;52.998;9.116;2024-03-17T11:08:28;8.33;;;2.60;;
33327;SDS011;19692;52.998;9.116;2024-03-17T11:10:56;6.30;;;2.40;;
33327;SDS011;19692;52.998;9.116;2024-03-17T11:13:22;8.47;;;2.60;;
33327;SDS011;19692;52.998;9.116;2024-03-17T11:15:50;7.07;;;2.37;;
33327;SDS011;19692;52.998;9.116;2024-03-17T11:21:02;8.67;;;2.80;;
33327;SDS011;19692;52.998;9.116;2024-03-17T11:23:40;7.23;;;2.20;;
33327;SDS011;19692;52.998;9.116;2024-03-17T11:26:07;10.37;;;2.97;;
33327;SDS011;19692;52.998;9.116;2024-03-17T11:34:00;8.40;;;2.70;;
33327;SDS011;19692;52.998;9.116;2024-03-17T11:36:33;6.07;;;2.43;;
33327;SDS011;19692;52.998;9.116;2024-03-17T11:39:02;6.97;;;2.57;;
33327;SDS011;19692;52.998;9.116;2024-03-17T11:41:52;6.00;;;2.47;;
33327;SDS011;19692;52.998;9.116;2024-03-17T11:49:21;7.97;;;3.07;;
33327;SDS011;19692;52.998;9.116;2024-03-17T11:51:51;8.67;;;3.00;;
33327;SDS011;19692;52.998;9.116;2024-03-17T11:54:19;7.77;;;2.90;;
33327;SDS011;19692;52.998;9.116;2024-03-17T11:56:50;7.33;;;2.97;;
33327;SDS011;19692;52.998;9.116;2024-03-17T11:59:17;8.30;;;2.70;;
33327;SDS011;19692;52.998;9.116;2024-03-17T12:01:45;5.97;;;2.47;;
33327;SDS011;19692;52.998;9.116;2024-03-17T12:04:12;5.53;;;2.80;;
33327;SDS011;19692;52.998;9.116;2024-03-17T12:06:39;7.30;;;2.60;;
33327;SDS011;19692;52.998;9.116;2024-03-17T12:09:19;7.27;;;2.87;;
33327;SDS011;19692;52.998;9.116;2024-03-17T12:11:49;6.73;;;2.80;;
33327;SDS011;19692;52.998;9.116;2024-03-17T12:14:19;9.27;;;3.03;;
33327;SDS011;19692;52.998;9.116;2024-03-17T12:16:51;9.33;;;3.20;;
33327;SDS011;19692;52.998;9.116;2024-03-17T12:19:21;7.70;;;2.90;;
33327;SDS011;19692;52.998;9.116;2024-03-17T12:21:57;6.63;;;2.90;;
33327;SDS011;19692;52.998;9.116;2024-03-17T12:24:25;8.57;;;2.70;;
33327;SDS011;19692;52.998;9.116;2024-03-17T12:26:52;9.20;;;3.27;;
33327;SDS011;19692;52.998;9.116;2024-03-17T12:31:57;5.17;;;2.63;;
33327;SDS011;19692;52.998;9.116;2024-03-17T12:34:29;6.60;;;3.07;;
33327;SDS011;19692;52.998;9.116;2024-03-17T12:36:56;8.53;;;2.97;;
33327;SDS011;19692;52.998;9.116;2024-03-17T12:39:23;7.80;;;2.50;;
33327;SDS011;19692;52.998;9.116;2024-03-17T12:42:11;7.33;;;2.90;;
33327;SDS011;19692;52.998;9.116;2024-03-17T12:44:52;7.00;;;2.90;;
33327;SDS011;19692;52.998;9.116;2024-03-17T12:47:18;7.27;;;3.10;;
33327;SDS011;19692;52.998;9.116;2024-03-17T12:49:51;9.53;;;2.77;;
33327;SDS011;19692;52.998;9.116;2024-03-17T12:52:22;9.30;;;2.70;;
33327;SDS011;19692;52.998;9.116;2024-03-17T12:55:08;11.00;;;3.30;;
33327;SDS011;19692;52.998;9.116;2024-03-17T13:01:05;6.57;;;2.67;;
33327;SDS011;19692;52.998;9.116;2024-03-17T13:03:35;6.17;;;2.80;;
33327;SDS011;19692;52.998;9.116;2024-03-17T13:06:02;8.17;;;2.63;;
33327;SDS011;19692;52.998;9.116;2024-03-17T13:08:31;7.40;;;2.47;;
33327;SDS011;19692;52.998;9.116;2024-03-17T13:11:00;5.37;;;3.10;;
33327;SDS011;19692;52.998;9.116;2024-03-17T13:13:29;6.73;;;2.57;;
33327;SDS011;19692;52.998;9.116;2024-03-17T13:15:55;8.23;;;3.17;;
33327;SDS011;19692;52.998;9.116;2024-03-17T13:18:21;6.97;;;2.30;;
33327;SDS011;19692;52.998;9.116;2024-03-17T13:20:47;9.00;;;2.63;;
33327;SDS011;19692;52.998;9.116;2024-03-17T13:23:18;7.23;;;2.43;;
33327;SDS011;19692;52.998;9.116;2024-03-17T13:25:46;13.33;;;3.13;;
33327;SDS011;19692;52.998;9.116;2024-03-17T13:28:13;7.47;;;2.80;;
33327;SDS011;19692;52.998;9.116;2024-03-17T13:30:38;7.63;;;2.60;;
33327;SDS011;19692;52.998;9.116;2024-03-17T13:33:05;8.17;;;2.83;;
33327;SDS011;19692;52.998;9.116;2024-03-17T13:35:34;7.83;;;3.23;;
33327;SDS011;19692;52.998;9.116;2024-03-17T13:38:03;6.97;;;2.50;;
33327;SDS011;19692;52.998;9.116;2024-03-17T13:40:32;6.20;;;2.73;;
33327;SDS011;19692;52.998;9.116;2024-03-17T13:42:58;7.43;;;2.50;;
33327;SDS011;19692;52.998;9.116;2024-03-17T13:45:25;5.80;;;2.37;;
33327;SDS011;19692;52.998;9.116;2024-03-17T13:47:55;8.33;;;2.50;;
33327;SDS011;19692;52.998;9.116;2024-03-17T13:50:22;6.10;;;2.40;;
33327;SDS011;19692;52.998;9.116;2024-03-17T13:52:48;7.40;;;2.50;;
33327;SDS011;19692;52.998;9.116;2024-03-17T13:55:14;7.73;;;2.30;;
33327;SDS011;19692;52.998;9.116;2024-03-17T13:57:43;8.03;;;2.73;;
33327;SDS011;19692;52.998;9.116;2024-03-17T14:00:10;6.80;;;2.60;;
33327;SDS011;19692;52.998;9.116;2024-03-17T14:02:40;7.60;;;2.73;;
33327;SDS011;19692;52.998;9.116;2024-03-17T14:05:11;6.93;;;2.27;;
33327;SDS011;19692;52.998;9.116;2024-03-17T14:07:38;7.93;;;2.20;;
33327;SDS011;19692;52.998;9.116;2024-03-17T14:10:04;7.23;;;3.20;;
33327;SDS011;19692;52.998;9.116;2024-03-17T14:12:32;7.87;;;2.43;;
33327;SDS011;19692;52.998;9.116;2024-03-17T14:14:57;7.87;;;2.80;;
33327;SDS011;19692;52.998;9.116;2024-03-17T14:17:23;11.00;;;2.83;;
33327;SDS011;19692;52.998;9.116;2024-03-17T14:19:48;5.23;;;2.33;;
33327;SDS011;19692;52.998;9.116;2024-03-17T14:22:14;7.57;;;2.90;;
33327;SDS011;19692;52.998;9.116;2024-03-17T14:24:40;7.60;;;2.63;;
33327;SDS011;19692;52.998;9.116;2024-03-17T14:27:05;7.27;;;2.60;;
33327;SDS011;19692;52.998;9.116;2024-03-17T14:29:32;9.70;;;2.90;;
33327;SDS011;19692;52.998;9.116;2024-03-17T14:31:57;7.77;;;2.77;;
33327;SDS011;19692;52.998;9.116;2024-03-17T14:34:23;8.93;;;2.37;;
33327;SDS011;19692;52.998;9.116;2024-03-17T14:36:49;5.63;;;2.07;;
33327;SDS011;19692;52.998;9.116;2024-03-17T14:39:14;6.63;;;2.20;;
33327;SDS011;19692;52.998;9.116;2024-03-17T14:41:40;6.83;;;2.50;;
33327;SDS011;19692;52.998;9.116;2024-03-17T14:44:05;7.33;;;2.10;;
33327;SDS011;19692;52.998;9.116;2024-03-17T14:46:31;6.37;;;2.50;;
33327;SDS011;19692;52.998;9.116;2024-03-17T14:48:57;4.77;;;2.23;;
33327;SDS011;19692;52.998;9.116;2024-03-17T14:51:22;7.03;;;2.60;;
33327;SDS011;19692;52.998;9.116;2024-03-17T14:53:48;5.73;;;2.17;;
33327;SDS011;19692;52.998;9.116;2024-03-17T14:56:16;5.93;;;2.10;;
33327;SDS011;19692;52.998;9.116;2024-03-17T14:58:45;8.53;;;2.50;;
33327;SDS011;19692;52.998;9.116;2024-03-17T15:01:12;6.57;;;2.27;;
33327;SDS011;19692;52.998;9.116;2024-03-17T15:03:38;7.43;;;2.67;;
33327;SDS011;19692;52.998;9.116;2024-03-17T15:06:08;6.23;;;2.67;;